»·PEaware :: WAT169 KSNA-KSLC

WAT169 :: KSNA-KSLC

FLIGHT INFORMATION

Flight Status: Arrived
Operator:
Walker Air Transport
More flights by this operator :: More flights under this callsign
Pilot: Marty P. (27464)
Aircraft: BOEING 737-800
(B738)
More flights by this aircraft type
Origin: KSNA John Wayne-Orange Co
United States
Destination: KSLC Salt Lake City Intl
United States
More flights between these airports :: More routes between these airports
Route: FINZZ3 BEALE Q842 WINEN MLF DELTA5
File this flight plan on PilotEdge
Remarks:
Altitude:
(Current/Filed)
39,000ft
Speed:
(Current/Filed)
480kts
Departed: 13-Oct-20 04:36 PM
Arrived: 13-Oct-20 06:01 PM
Distance/Time
Traveled:
511nm/1:25
Distance/Time
To Go:
Arrived

Flight Plot

Page will automatically refresh every two minutes.

Flight plan parsing failed; only flown route is shown


Map Options




Map Legend


Flown Route
Filed Route
Departure Airport
Arrival Airport
Navaid (VOR, NDB)
Fix

Horizontal Profiles

Position Reports

Time Latitude Longitude Heading Altitude Ground
Speed
13-Oct-20 16:19 33.675005 -117.865072 118 67ft 0kts
13-Oct-20 16:20 33.675005 -117.865072 118 66ft 0kts
13-Oct-20 16:21 33.675005 -117.865072 118 66ft 0kts
13-Oct-20 16:22 33.675005 -117.865072 118 66ft 0kts
13-Oct-20 16:23 33.675005 -117.865072 118 66ft 0kts
13-Oct-20 16:24 33.675005 -117.865072 118 66ft 0kts
13-Oct-20 16:25 33.675005 -117.865072 118 66ft 0kts
13-Oct-20 16:26 33.675005 -117.865072 118 66ft 0kts
13-Oct-20 16:27 33.675005 -117.865073 118 66ft 0kts
13-Oct-20 16:28 33.675116 -117.865321 118 66ft 1kts
13-Oct-20 16:29 33.674986 -117.865926 30 66ft 0kts
13-Oct-20 16:30 33.674923 -117.865964 27 66ft 0kts
13-Oct-20 16:31 33.675006 -117.865910 28 66ft 3kts
13-Oct-20 16:32 33.678541 -117.863666 27 66ft 17kts
13-Oct-20 16:33 33.680588 -117.863013 309 66ft 0kts
13-Oct-20 16:34 33.681334 -117.864621 297 66ft 14kts
13-Oct-20 16:35 33.664305 -117.875922 207 429ft 161kts
13-Oct-20 16:36 33.611703 -117.894381 187 2564ft 239kts
13-Oct-20 16:37 33.548926 -117.923889 223 5582ft 266kts
13-Oct-20 16:38 33.506805 -117.992629 261 9660ft 268kts
13-Oct-20 16:39 33.539240 -118.078459 322 11304ft 347kts
13-Oct-20 16:40 33.638276 -118.098052 17 13709ft 390kts
13-Oct-20 16:41 33.738410 -118.043007 24 16569ft 404kts
13-Oct-20 16:42 33.842661 -117.982105 24 19072ft 415kts
13-Oct-20 16:43 33.942682 -117.908154 33 21165ft 431kts
13-Oct-20 16:44 34.040412 -117.821207 36 23064ft 443kts
13-Oct-20 16:45 34.128074 -117.713732 47 24756ft 457kts
13-Oct-20 16:46 34.211283 -117.595030 48 26291ft 468kts
13-Oct-20 16:47 34.294537 -117.472540 48 27727ft 476kts
13-Oct-20 16:48 34.377048 -117.349328 49 29621ft 470kts
13-Oct-20 16:49 34.459411 -117.225935 49 31264ft 468kts
13-Oct-20 16:50 34.540881 -117.103543 49 32784ft 465kts
13-Oct-20 16:51 34.623232 -116.983095 48 34110ft 464kts
13-Oct-20 16:52 34.705484 -116.863199 48 35381ft 461kts
13-Oct-20 16:53 34.786948 -116.744077 48 36536ft 458kts
13-Oct-20 16:54 34.868496 -116.625104 45 37461ft 457kts
13-Oct-20 16:55 34.954126 -116.510925 44 38242ft 457kts
13-Oct-20 16:56 35.039979 -116.396320 44 38935ft 457kts
13-Oct-20 16:57 35.125993 -116.280980 45 39103ft 468kts
13-Oct-20 16:58 35.214369 -116.162000 45 39100ft 478kts
13-Oct-20 16:59 35.304168 -116.040646 45 39100ft 484kts
13-Oct-20 17:01 35.394115 -115.918660 45 39100ft 487kts
13-Oct-20 17:02 35.484901 -115.795089 45 39113ft 488kts
13-Oct-20 17:03 35.575805 -115.670907 45 39127ft 489kts
13-Oct-20 17:04 35.666422 -115.546665 45 39128ft 490kts
13-Oct-20 17:05 35.756531 -115.421376 46 39127ft 491kts
13-Oct-20 17:06 35.846124 -115.296584 46 39128ft 491kts
13-Oct-20 17:07 35.935758 -115.172032 46 39128ft 491kts
13-Oct-20 17:08 36.025817 -115.046612 46 39123ft 491kts
13-Oct-20 17:09 36.116087 -114.920494 46 39090ft 492kts
13-Oct-20 17:10 36.214169 -114.807246 29 39073ft 486kts
13-Oct-20 17:11 36.332094 -114.727160 25 39073ft 484kts
13-Oct-20 17:12 36.450813 -114.648402 25 39073ft 485kts
13-Oct-20 17:13 36.569494 -114.569405 25 39073ft 485kts
13-Oct-20 17:14 36.688137 -114.490156 25 39073ft 485kts
13-Oct-20 17:15 36.802899 -114.402693 29 39093ft 486kts
13-Oct-20 17:15 36.898145 -114.327864 29 39115ft 485kts
13-Oct-20 17:17 37.030970 -114.223308 29 39146ft 485kts
13-Oct-20 17:17 37.124127 -114.149763 29 39137ft 485kts
13-Oct-20 17:19 37.256695 -114.044741 29 39210ft 483kts
13-Oct-20 17:19 37.351062 -113.969720 29 39256ft 483kts
13-Oct-20 17:20 37.464417 -113.879308 29 39256ft 483kts
13-Oct-20 17:21 37.577520 -113.788767 29 39256ft 483kts
13-Oct-20 17:22 37.690777 -113.697774 29 39256ft 483kts
13-Oct-20 17:23 37.803757 -113.606669 29 39249ft 483kts
13-Oct-20 17:24 37.915905 -113.513842 34 39222ft 486kts
13-Oct-20 17:25 38.018700 -113.402312 37 39219ft 487kts
13-Oct-20 17:26 38.119082 -113.289223 37 39219ft 488kts
13-Oct-20 17:27 38.220281 -113.174222 37 39219ft 488kts
13-Oct-20 17:28 38.321535 -113.058582 37 39207ft 489kts
13-Oct-20 17:29 38.436090 -112.973156 19 39201ft 477kts
13-Oct-20 17:30 38.558530 -112.907737 18 39211ft 477kts
13-Oct-20 17:31 38.680709 -112.842429 18 39220ft 477kts
13-Oct-20 17:32 38.802754 -112.776961 18 39228ft 477kts
13-Oct-20 17:33 38.925102 -112.710840 18 39221ft 477kts
13-Oct-20 17:34 39.047283 -112.644606 17 39175ft 476kts
13-Oct-20 17:35 39.167184 -112.579442 17 36290ft 464kts
13-Oct-20 17:36 39.285102 -112.516224 13 33284ft 457kts
13-Oct-20 17:37 39.408272 -112.471391 9 30297ft 470kts
13-Oct-20 17:38 39.535907 -112.428427 8 27454ft 481kts
13-Oct-20 17:39 39.665499 -112.385046 8 24635ft 472kts
13-Oct-20 17:40 39.791084 -112.343021 9 22022ft 459kts
13-Oct-20 17:41 39.912075 -112.302433 9 19413ft 441kts
13-Oct-20 17:42 40.026022 -112.263959 9 17196ft 402kts
13-Oct-20 17:43 40.126142 -112.229903 9 17072ft 364kts
13-Oct-20 17:44 40.224543 -112.196557 9 16983ft 365kts
13-Oct-20 17:45 40.322062 -112.163313 9 14589ft 347kts
13-Oct-20 17:46 40.409861 -112.133255 8 13020ft 293kts
13-Oct-20 17:47 40.483950 -112.107991 7 13029ft 257kts
13-Oct-20 17:48 40.554069 -112.084814 2 11964ft 254kts
13-Oct-20 17:49 40.624255 -112.078753 356 11013ft 250kts
13-Oct-20 17:50 40.693271 -112.085066 349 11015ft 250kts
13-Oct-20 17:51 40.762846 -112.091408 350 10797ft 258kts
13-Oct-20 17:52 40.834411 -112.101680 351 9296ft 253kts
13-Oct-20 17:53 40.903650 -112.109942 352 7360ft 248kts
13-Oct-20 17:54 40.971205 -112.117356 3 7030ft 246kts
13-Oct-20 17:55 40.994952 -112.051826 100 7033ft 214kts
13-Oct-20 17:56 40.957368 -111.996305 157 7029ft 201kts
13-Oct-20 17:57 40.902439 -111.988003 177 6130ft 197kts
13-Oct-20 17:58 40.851603 -111.982067 174 5124ft 161kts
13-Oct-20 17:59 40.806792 -111.976925 174 4262ft 161kts
13-Oct-20 18:00 40.785188 -111.975307 205 4226ft 24kts
13-Oct-20 18:01 40.784615 -111.976218 298 4229ft 7kts
13-Oct-20 18:02 40.786456 -111.978630 310 4227ft 0kts

Navigation Log

Ident Type
Flight plan parsing failed, navigation log unavailable